createdAt,value
2023-02-23T00:00:28.543Z,34.37
2023-02-23T00:02:56.178Z,34.70
2023-02-23T00:05:23.316Z,34.07
2023-02-23T00:07:49.837Z,30.17
2023-02-23T00:10:18.503Z,33.73
2023-02-23T00:12:45.109Z,30.80
2023-02-23T00:15:11.775Z,33.57
2023-02-23T00:17:38.229Z,32.30
2023-02-23T00:20:09.885Z,37.37
2023-02-23T00:22:36.317Z,39.03
2023-02-23T00:25:03.368Z,33.93
2023-02-23T00:27:29.796Z,38.43
2023-02-23T00:29:56.560Z,29.90
2023-02-23T00:32:24.054Z,29.97
2023-02-23T00:34:50.560Z,31.80
2023-02-23T00:37:18.155Z,34.80
2023-02-23T00:39:44.622Z,42.37
2023-02-23T00:42:11.388Z,35.83
2023-02-23T00:44:40.642Z,33.33
2023-02-23T00:47:07.546Z,35.93
2023-02-23T00:49:34.148Z,36.23
2023-02-23T00:52:00.538Z,34.67
2023-02-23T00:54:27.005Z,38.30
2023-02-23T00:56:53.349Z,38.00
2023-02-23T00:59:20.546Z,40.93
2023-02-23T01:01:47.268Z,39.27
2023-02-23T01:04:13.712Z,43.50
2023-02-23T01:06:41.467Z,38.10
2023-02-23T01:09:13.937Z,36.67
2023-02-23T01:11:41.612Z,39.70
2023-02-23T01:14:08.412Z,38.73
2023-02-23T01:16:35.140Z,36.97
2023-02-23T01:19:03.501Z,37.73
2023-02-23T01:21:31.383Z,39.13
2023-02-23T01:23:58.149Z,39.70
2023-02-23T01:26:29.043Z,39.60
2023-02-23T01:28:56.880Z,38.27
2023-02-23T01:31:24.331Z,39.13
2023-02-23T01:33:54.644Z,39.03
2023-02-23T01:36:21.143Z,37.40
2023-02-23T01:38:49.183Z,39.50
2023-02-23T01:41:16.141Z,39.93
2023-02-23T01:43:55.627Z,36.33
2023-02-23T01:46:22.180Z,39.70
2023-02-23T01:48:48.890Z,37.27
2023-02-23T01:51:25.314Z,32.80
2023-02-23T01:53:54.655Z,38.30
2023-02-23T01:56:27.782Z,40.63
2023-02-23T01:58:56.305Z,35.80
2023-02-23T02:03:58.946Z,33.27
2023-02-23T02:06:28.890Z,40.77
2023-02-23T02:08:57.803Z,40.90
2023-02-23T02:11:30.737Z,36.57
2023-02-23T02:14:02.710Z,34.63
2023-02-23T02:16:46.081Z,41.07
2023-02-23T02:19:20.828Z,42.83
2023-02-23T02:22:09.565Z,37.57
2023-02-23T02:25:02.258Z,37.63
2023-02-23T02:27:43.548Z,39.07
2023-02-23T02:30:28.846Z,41.63
2023-02-23T02:33:05.326Z,40.17
2023-02-23T02:35:34.812Z,40.23
2023-02-23T02:38:19.424Z,36.07
2023-02-23T02:40:54.505Z,36.40
2023-02-23T02:43:40.831Z,36.33
2023-02-23T02:46:07.267Z,43.87
2023-02-23T02:48:39.584Z,35.90
2023-02-23T02:51:17.804Z,35.03
2023-02-23T02:54:07.017Z,40.80
2023-02-23T02:56:40.456Z,41.57
2023-02-23T02:59:33.516Z,36.17
2023-02-23T03:02:18.811Z,43.90
2023-02-23T03:05:03.932Z,33.33
2023-02-23T03:07:52.430Z,35.87
2023-02-23T03:10:43.234Z,38.27
2023-02-23T03:13:37.249Z,31.10
2023-02-23T03:16:34.216Z,31.93
2023-02-23T03:19:25.200Z,34.50
2023-02-23T03:22:15.241Z,34.33
2023-02-23T03:25:08.227Z,39.83
2023-02-23T03:27:53.205Z,38.43
2023-02-23T03:30:40.728Z,37.00
2023-02-23T03:33:30.176Z,36.37
2023-02-23T03:36:31.107Z,36.50
2023-02-23T03:39:21.158Z,38.97
2023-02-23T03:42:09.163Z,36.73
2023-02-23T03:44:56.623Z,33.27
2023-02-23T03:47:43.155Z,32.97
2023-02-23T03:50:30.652Z,38.63
2023-02-23T03:53:18.096Z,37.07
2023-02-23T03:56:06.531Z,36.13
2023-02-23T03:58:57.055Z,41.47
2023-02-23T04:01:43.083Z,35.13
2023-02-23T04:04:29.336Z,34.33
2023-02-23T04:07:16.420Z,35.03
2023-02-23T04:10:01.929Z,38.50
2023-02-23T04:12:47.072Z,40.43
2023-02-23T04:15:20.342Z,39.57
2023-02-23T04:17:47.050Z,38.40
2023-02-23T04:20:13.929Z,33.17
2023-02-23T04:22:40.391Z,54.03
2023-02-23T04:25:09.044Z,58.67
2023-02-23T04:27:36.237Z,37.37
2023-02-23T04:30:03.834Z,34.20
2023-02-23T04:32:30.870Z,32.70
2023-02-23T04:34:57.334Z,39.07
2023-02-23T04:37:23.669Z,36.80
2023-02-23T04:39:50.455Z,41.50
2023-02-23T04:42:17.645Z,34.57
2023-02-23T04:44:44.583Z,37.40
2023-02-23T04:47:11.374Z,35.07
2023-02-23T04:49:38.147Z,38.20
2023-02-23T04:52:04.653Z,35.67
2023-02-23T04:54:31.058Z,33.70
2023-02-23T04:56:57.481Z,37.53
2023-02-23T04:59:23.875Z,55.27
2023-02-23T05:01:50.249Z,50.63
2023-02-23T05:04:16.610Z,43.63
2023-02-23T05:06:43.066Z,42.37
2023-02-23T05:09:09.508Z,40.60
2023-02-23T05:11:35.939Z,51.63
2023-02-23T05:14:02.381Z,38.97
2023-02-23T05:16:29.020Z,40.97
2023-02-23T05:18:55.585Z,52.43
2023-02-23T05:21:22.021Z,36.70
2023-02-23T05:23:48.599Z,41.43
2023-02-23T05:26:14.943Z,47.53
2023-02-23T05:28:42.359Z,98.93
2023-02-23T05:31:09.309Z,43.27
2023-02-23T05:33:42.491Z,44.40
2023-02-23T05:36:10.454Z,43.30
2023-02-23T05:38:36.973Z,46.67
2023-02-23T05:41:07.206Z,46.33
2023-02-23T05:43:34.083Z,41.73
2023-02-23T05:46:01.454Z,49.33
2023-02-23T05:48:31.023Z,42.07
2023-02-23T05:51:00.881Z,43.57
2023-02-23T05:53:27.245Z,47.83
2023-02-23T05:55:53.634Z,42.63
2023-02-23T05:58:20.016Z,51.20
2023-02-23T06:00:46.364Z,44.07
2023-02-23T06:03:13.140Z,45.70
2023-02-23T06:05:39.517Z,45.03
2023-02-23T06:08:05.994Z,43.47
2023-02-23T06:10:32.414Z,48.33
2023-02-23T06:12:58.873Z,49.70
2023-02-23T06:15:25.457Z,41.93
2023-02-23T06:17:51.835Z,48.50
2023-02-23T06:20:18.291Z,50.33
2023-02-23T06:22:44.774Z,43.43
2023-02-23T06:25:12.943Z,52.73
2023-02-23T06:27:40.366Z,51.80
2023-02-23T06:30:06.940Z,44.97
2023-02-23T06:32:33.410Z,66.03
2023-02-23T06:34:59.841Z,53.40
2023-02-23T06:37:26.284Z,44.90
2023-02-23T06:39:52.648Z,39.80
2023-02-23T06:42:19.038Z,51.00
2023-02-23T06:44:45.440Z,55.50
2023-02-23T06:47:12.004Z,58.57
2023-02-23T06:49:40.466Z,55.40
2023-02-23T06:52:07.873Z,62.33
2023-02-23T06:54:34.424Z,69.30
2023-02-23T06:57:00.889Z,62.03
2023-02-23T06:59:27.296Z,61.20
2023-02-23T07:01:53.788Z,61.23
2023-02-23T07:04:20.194Z,65.47
2023-02-23T07:06:46.683Z,64.50
2023-02-23T07:09:13.488Z,85.00
2023-02-23T07:11:41.188Z,83.30
2023-02-23T07:14:12.902Z,86.87
2023-02-23T07:16:41.867Z,86.00
2023-02-23T07:19:08.324Z,139.13
2023-02-23T07:21:35.176Z,79.57
2023-02-23T07:24:04.871Z,86.10
2023-02-23T07:26:32.645Z,86.37
2023-02-23T07:28:59.592Z,85.17
2023-02-23T07:31:26.365Z,86.23
2023-02-23T07:33:54.853Z,91.27
2023-02-23T07:36:22.064Z,92.90
2023-02-23T07:38:48.539Z,82.60
2023-02-23T07:41:14.898Z,89.77
2023-02-23T07:43:42.154Z,88.13
2023-02-23T07:46:08.891Z,90.97
2023-02-23T07:48:35.401Z,87.40
2023-02-23T07:51:01.890Z,94.47
2023-02-23T07:53:28.412Z,93.60
2023-02-23T07:55:58.113Z,83.57
2023-02-23T07:58:25.557Z,89.70
2023-02-23T08:00:52.054Z,90.03
2023-02-23T08:03:18.952Z,85.40
2023-02-23T08:05:45.674Z,82.63
2023-02-23T08:08:12.279Z,84.63
2023-02-23T08:10:38.820Z,76.63
2023-02-23T08:13:05.422Z,85.43
2023-02-23T08:15:31.944Z,81.67
2023-02-23T08:17:58.310Z,67.60
2023-02-23T08:20:24.808Z,64.57
2023-02-23T08:22:54.828Z,73.53
2023-02-23T08:25:21.285Z,69.43
2023-02-23T08:27:48.175Z,66.33
2023-02-23T08:30:15.460Z,73.90
2023-02-23T08:32:42.040Z,78.97
2023-02-23T08:35:09.983Z,68.20
2023-02-23T08:37:36.413Z,64.10
2023-02-23T08:40:03.445Z,59.57
2023-02-23T08:42:29.783Z,67.63
2023-02-23T08:44:56.341Z,67.97
2023-02-23T08:47:24.308Z,70.33
2023-02-23T08:49:50.813Z,69.60
2023-02-23T08:52:17.482Z,69.93
2023-02-23T08:54:43.941Z,69.80
2023-02-23T08:57:12.483Z,66.63
2023-02-23T08:59:39.287Z,63.43
2023-02-23T09:02:07.585Z,69.03
2023-02-23T09:04:35.315Z,63.33
2023-02-23T09:07:02.184Z,69.23
2023-02-23T09:09:28.592Z,62.77
2023-02-23T09:11:55.014Z,68.70
2023-02-23T09:14:21.464Z,61.37
2023-02-23T09:16:47.865Z,62.87
2023-02-23T09:19:14.237Z,65.53
2023-02-23T09:21:40.677Z,60.53
2023-02-23T09:30:28.303Z,61.10
2023-02-23T09:32:55.468Z,63.83
2023-02-23T09:35:22.966Z,65.43
2023-02-23T09:37:50.387Z,73.60
2023-02-23T09:40:18.095Z,75.70
2023-02-23T09:42:59.108Z,84.50
2023-02-23T09:45:43.089Z,91.10
2023-02-23T09:48:28.586Z,87.93
2023-02-23T09:50:56.535Z,91.50
2023-02-23T09:53:22.870Z,100.33
2023-02-23T09:55:50.198Z,99.07
2023-02-23T09:58:23.072Z,100.77
2023-02-23T10:00:56.503Z,99.50
2023-02-23T10:03:31.427Z,108.40
2023-02-23T10:06:01.276Z,118.40
2023-02-23T10:08:30.421Z,126.67
2023-02-23T10:11:04.407Z,136.60
2023-02-23T10:13:45.135Z,129.93
2023-02-23T10:16:36.462Z,131.27
2023-02-23T10:19:13.056Z,137.10
2023-02-23T10:21:40.536Z,137.80
2023-02-23T10:24:11.078Z,125.37
2023-02-23T10:26:49.159Z,136.83
2023-02-23T10:29:20.746Z,132.37
2023-02-23T10:31:48.764Z,124.43
2023-02-23T10:34:17.099Z,122.20
2023-02-23T10:36:50.482Z,122.93
2023-02-23T10:39:17.057Z,127.70
2023-02-23T10:41:43.468Z,119.20
2023-02-23T10:44:20.964Z,120.70
2023-02-23T10:46:50.433Z,114.90
2023-02-23T10:49:22.587Z,125.27
2023-02-23T10:51:49.472Z,120.60
2023-02-23T10:54:34.410Z,119.57
2023-02-23T10:57:01.058Z,125.53
2023-02-23T10:59:28.756Z,115.70
2023-02-23T11:02:02.465Z,129.50
2023-02-23T11:04:30.935Z,127.97
2023-02-23T11:07:08.565Z,122.17
2023-02-23T11:09:46.721Z,121.60
2023-02-23T11:12:32.562Z,118.43
2023-02-23T11:14:59.003Z,116.77
2023-02-23T11:17:36.450Z,116.77
2023-02-23T11:20:25.890Z,112.60
2023-02-23T11:22:52.514Z,107.73
2023-02-23T11:25:29.792Z,98.97
2023-02-23T11:27:58.410Z,107.50
2023-02-23T11:30:29.575Z,99.83
2023-02-23T11:32:57.597Z,101.57
2023-02-23T11:35:23.960Z,98.77
2023-02-23T11:37:50.417Z,99.93
2023-02-23T11:40:21.856Z,101.80
2023-02-23T11:42:55.829Z,96.70
2023-02-23T11:45:23.457Z,98.90
2023-02-23T11:47:51.638Z,86.17
2023-02-23T11:53:13.965Z,91.67
2023-02-23T11:55:40.731Z,95.57
2023-02-23T11:58:22.739Z,95.20
2023-02-23T12:01:03.082Z,96.10
2023-02-23T12:03:32.108Z,84.27
2023-02-23T12:05:59.327Z,94.47
2023-02-23T12:08:45.966Z,86.57
2023-02-23T12:11:16.315Z,89.47
2023-02-23T12:13:45.947Z,87.93
2023-02-23T12:16:21.162Z,92.17
2023-02-23T12:18:55.469Z,86.43
2023-02-23T12:21:36.993Z,93.93
2023-02-23T12:24:08.559Z,94.47
2023-02-23T12:26:48.025Z,95.07
2023-02-23T12:29:23.275Z,88.77
2023-02-23T12:31:52.848Z,85.60
2023-02-23T12:34:38.121Z,95.40
2023-02-23T12:37:16.888Z,90.87
2023-02-23T12:39:45.181Z,87.27
2023-02-23T12:42:22.907Z,90.43
2023-02-23T12:45:04.464Z,86.07
2023-02-23T12:48:00.638Z,87.00
2023-02-23T12:50:29.254Z,87.43
2023-02-23T12:53:06.966Z,85.50
2023-02-23T12:55:50.823Z,82.40
2023-02-23T12:58:21.232Z,87.23
2023-02-23T13:00:59.768Z,85.63
2023-02-23T13:03:26.248Z,84.20
2023-02-23T13:06:05.074Z,85.30
2023-02-23T13:08:40.749Z,87.60
2023-02-23T13:11:14.165Z,89.40
2023-02-23T13:13:49.677Z,70.73
2023-02-23T13:16:30.671Z,86.53
2023-02-23T13:19:15.570Z,90.70
2023-02-23T13:21:45.779Z,82.63
2023-02-23T13:24:19.133Z,81.10
2023-02-23T13:26:51.165Z,76.07
2023-02-23T13:29:26.851Z,85.23
2023-02-23T13:31:53.661Z,85.10
2023-02-23T13:34:39.570Z,81.93
2023-02-23T13:37:07.508Z,79.80
2023-02-23T13:39:48.915Z,67.87
2023-02-23T13:42:18.316Z,70.13
2023-02-23T13:45:03.704Z,71.37
2023-02-23T13:47:52.643Z,72.17
2023-02-23T13:50:19.271Z,72.80
2023-02-23T13:52:46.382Z,70.70
2023-02-23T13:55:37.201Z,65.63
2023-02-23T13:58:17.448Z,68.90
2023-02-23T14:00:44.832Z,67.53
2023-02-23T14:03:23.267Z,66.33
2023-02-23T14:05:52.712Z,75.00
2023-02-23T14:08:22.899Z,63.13
2023-02-23T14:10:52.932Z,68.50
2023-02-23T14:13:21.105Z,60.27
2023-02-23T14:15:49.947Z,62.90
2023-02-23T14:18:19.155Z,57.37
2023-02-23T14:21:03.471Z,65.77
2023-02-23T14:23:33.172Z,54.53
2023-02-23T14:26:11.740Z,52.07
2023-02-23T14:28:39.672Z,55.80
2023-02-23T14:31:17.092Z,49.10
2023-02-23T14:33:45.752Z,54.60
2023-02-23T14:36:28.923Z,48.63
2023-02-23T14:39:01.192Z,44.90
2023-02-23T14:41:27.678Z,52.03
2023-02-23T14:44:06.931Z,46.80
2023-02-23T14:46:36.029Z,42.77
2023-02-23T14:49:08.002Z,44.97
2023-02-23T14:51:42.092Z,38.93
2023-02-23T14:54:27.345Z,41.87
2023-02-23T14:56:56.709Z,38.57
2023-02-23T14:59:24.637Z,36.33
2023-02-23T15:01:51.447Z,37.23
2023-02-23T15:04:20.469Z,34.20
2023-02-23T15:06:47.470Z,40.47
2023-02-23T15:09:22.674Z,29.43
2023-02-23T15:11:50.665Z,33.93
2023-02-23T15:14:26.921Z,32.43
2023-02-23T15:16:56.074Z,29.17
2023-02-23T15:19:24.797Z,37.43
2023-02-23T15:21:52.437Z,37.40
2023-02-23T15:24:24.608Z,30.53
2023-02-23T15:26:51.616Z,43.20
2023-02-23T15:29:19.518Z,38.53
2023-02-23T15:31:53.341Z,41.60
2023-02-23T15:34:21.532Z,37.57
2023-02-23T15:36:50.700Z,41.93
2023-02-23T15:39:18.460Z,41.53
2023-02-23T15:41:47.027Z,41.60
2023-02-23T15:44:24.202Z,46.40
2023-02-23T15:46:55.428Z,44.70
2023-02-23T15:49:24.607Z,47.03
2023-02-23T15:51:52.983Z,54.73
2023-02-23T15:54:22.249Z,47.27
2023-02-23T15:56:50.168Z,51.60
2023-02-23T15:59:20.912Z,48.07
2023-02-23T16:01:47.578Z,55.60
2023-02-23T16:04:14.014Z,54.43
2023-02-23T16:07:07.236Z,60.93
2023-02-23T16:09:37.403Z,58.97
2023-02-23T16:12:05.508Z,56.77
2023-02-23T16:14:42.568Z,69.43
2023-02-23T16:17:21.506Z,63.67
2023-02-23T16:19:48.088Z,55.00
2023-02-23T16:22:22.610Z,55.73
2023-02-23T16:24:52.357Z,52.10
2023-02-23T16:27:20.249Z,51.20
2023-02-23T16:29:46.816Z,57.60
2023-02-23T16:32:19.921Z,47.70
2023-02-23T16:34:46.450Z,52.80
2023-02-23T16:37:18.072Z,42.97
2023-02-23T16:39:44.699Z,54.70
2023-02-23T16:42:28.127Z,42.63
2023-02-23T16:44:54.625Z,41.07
2023-02-23T16:47:24.158Z,39.20
2023-02-23T16:49:51.226Z,55.90
2023-02-23T16:52:25.677Z,47.90
2023-02-23T16:54:55.302Z,54.13
2023-02-23T16:57:25.611Z,50.33
2023-02-23T16:59:52.943Z,38.67
2023-02-23T17:02:20.084Z,47.40
2023-02-23T17:04:49.091Z,47.83
2023-02-23T17:07:16.420Z,32.20
2023-02-23T17:09:43.138Z,39.97
2023-02-23T17:12:11.195Z,45.27
2023-02-23T17:14:37.761Z,36.93
2023-02-23T17:17:04.309Z,34.83
2023-02-23T17:19:33.961Z,31.93
2023-02-23T17:22:00.421Z,34.50
2023-02-23T17:24:26.807Z,29.67
2023-02-23T17:26:55.556Z,31.83
2023-02-23T17:29:22.728Z,31.70
2023-02-23T17:31:50.684Z,29.17
2023-02-23T17:34:17.672Z,34.93
2023-02-23T17:36:44.042Z,23.13
2023-02-23T17:39:10.802Z,31.40
2023-02-23T17:41:37.252Z,24.47
2023-02-23T17:44:05.924Z,21.97
2023-02-23T17:46:32.482Z,29.47
2023-02-23T17:48:58.893Z,23.97
2023-02-23T17:51:25.352Z,20.60
2023-02-23T17:53:51.949Z,22.50
2023-02-23T17:56:20.326Z,22.63
2023-02-23T17:58:47.232Z,17.90
2023-02-23T18:01:13.756Z,37.03
2023-02-23T18:03:40.749Z,25.07
2023-02-23T18:06:09.118Z,31.90
2023-02-23T18:08:36.303Z,27.07
2023-02-23T18:11:02.966Z,33.83
2023-02-23T18:13:30.185Z,34.33
2023-02-23T18:16:01.179Z,23.17
2023-02-23T18:18:28.115Z,25.80
2023-02-23T18:20:56.129Z,23.03
2023-02-23T18:23:23.797Z,36.10
2023-02-23T18:25:50.648Z,30.87
2023-02-23T18:28:17.676Z,20.87
2023-02-23T18:30:44.878Z,27.17
2023-02-23T18:33:12.115Z,30.97
2023-02-23T18:35:39.864Z,24.17
2023-02-23T18:38:10.304Z,22.50
2023-02-23T18:40:37.895Z,25.37
2023-02-23T18:43:04.566Z,19.73
2023-02-23T18:45:31.510Z,18.67
2023-02-23T18:47:57.964Z,25.33
2023-02-23T18:50:26.479Z,22.63
2023-02-23T18:52:54.795Z,27.07
2023-02-23T18:55:22.378Z,22.73
2023-02-23T18:57:51.640Z,20.80
2023-02-23T19:00:18.512Z,20.80
2023-02-23T19:02:46.448Z,24.07
2023-02-23T19:05:13.921Z,27.23
2023-02-23T19:07:41.018Z,16.30
2023-02-23T19:10:09.183Z,20.50
2023-02-23T19:12:35.930Z,23.17
2023-02-23T19:15:03.330Z,26.30
2023-02-23T19:17:30.034Z,18.23
2023-02-23T19:19:56.554Z,18.23
2023-02-23T19:22:23.293Z,17.63
2023-02-23T19:24:49.809Z,18.67
2023-02-23T19:27:17.310Z,25.17
2023-02-23T19:29:44.229Z,15.33
2023-02-23T19:32:11.225Z,22.67
2023-02-23T19:34:40.094Z,17.17
2023-02-23T19:37:06.999Z,20.13
2023-02-23T19:39:33.445Z,15.83
2023-02-23T19:41:59.805Z,22.20
2023-02-23T19:44:26.413Z,23.63
2023-02-23T19:46:52.884Z,19.70
2023-02-23T19:49:19.349Z,17.27
2023-02-23T19:51:47.721Z,22.67
2023-02-23T19:54:14.106Z,23.00
2023-02-23T19:56:40.544Z,21.03
2023-02-23T19:59:07.224Z,18.20
2023-02-23T20:01:33.837Z,26.13
2023-02-23T20:04:06.572Z,30.70
2023-02-23T20:06:41.277Z,19.07
2023-02-23T20:09:09.228Z,19.67
2023-02-23T20:11:35.650Z,19.63
2023-02-23T20:14:04.352Z,15.90
2023-02-23T20:16:30.988Z,17.03
2023-02-23T20:18:57.893Z,25.10
2023-02-23T20:21:26.194Z,21.07
2023-02-23T20:23:53.634Z,18.97
2023-02-23T20:26:22.154Z,17.73
2023-02-23T20:28:50.056Z,16.83
2023-02-23T20:31:21.440Z,18.93
2023-02-23T20:33:51.692Z,16.93
2023-02-23T20:36:19.371Z,14.47
2023-02-23T20:38:45.985Z,21.53
2023-02-23T20:41:12.544Z,22.80
2023-02-23T20:43:39.199Z,24.57
2023-02-23T20:46:06.060Z,20.07
2023-02-23T20:48:33.529Z,15.13
2023-02-23T20:51:01.449Z,19.23
2023-02-23T20:53:28.696Z,14.43
2023-02-23T20:55:55.560Z,18.20
2023-02-23T20:58:28.925Z,15.87
2023-02-23T21:00:57.159Z,21.40
2023-02-23T21:03:24.912Z,17.03
2023-02-23T21:05:52.011Z,16.30
2023-02-23T21:08:19.048Z,13.13
2023-02-23T21:10:45.675Z,16.67
2023-02-23T21:13:12.054Z,19.60
2023-02-23T21:15:39.661Z,13.60
2023-02-23T21:18:06.612Z,17.60
2023-02-23T21:20:33.586Z,16.40
2023-02-23T21:23:00.414Z,19.67
2023-02-23T21:25:27.438Z,24.53
2023-02-23T21:27:55.392Z,20.60
2023-02-23T21:30:22.851Z,15.57
2023-02-23T21:32:50.354Z,11.90
2023-02-23T21:35:17.581Z,14.13
2023-02-23T21:37:44.267Z,16.07
2023-02-23T21:40:12.596Z,14.50
2023-02-23T21:42:40.612Z,13.30
2023-02-23T21:45:08.746Z,15.97
2023-02-23T21:47:37.323Z,16.57
2023-02-23T21:50:03.950Z,10.97
2023-02-23T21:52:31.540Z,8.40
2023-02-23T21:54:59.716Z,26.50
2023-02-23T21:57:28.880Z,10.43
2023-02-23T21:59:55.354Z,12.63
2023-02-23T22:02:21.759Z,11.67
2023-02-23T22:04:49.348Z,6.60
2023-02-23T22:07:16.951Z,9.37
2023-02-23T22:09:43.821Z,9.27
2023-02-23T22:12:10.545Z,7.20
2023-02-23T22:14:36.980Z,12.63
2023-02-23T22:17:04.417Z,7.63
2023-02-23T22:19:30.890Z,10.23
2023-02-23T22:21:57.295Z,6.00
2023-02-23T22:24:23.876Z,4.80
2023-02-23T22:26:56.717Z,8.47
2023-02-23T22:29:24.451Z,7.87
2023-02-23T22:31:51.147Z,10.50
2023-02-23T22:34:18.465Z,7.70
2023-02-23T22:36:45.010Z,9.67
2023-02-23T22:39:18.405Z,10.70
2023-02-23T22:41:45.517Z,10.13
2023-02-23T22:44:13.197Z,6.83
2023-02-23T22:46:40.686Z,8.17
2023-02-23T22:49:07.681Z,6.73
2023-02-23T22:51:34.118Z,9.37
2023-02-23T22:54:00.477Z,11.23
2023-02-23T22:56:26.815Z,8.53
2023-02-23T22:58:54.192Z,8.63
2023-02-23T23:01:20.953Z,7.20
2023-02-23T23:03:47.759Z,13.60
2023-02-23T23:06:16.553Z,7.90
2023-02-23T23:08:44.612Z,11.20
2023-02-23T23:11:12.294Z,8.23
2023-02-23T23:13:44.404Z,7.87
2023-02-23T23:16:32.472Z,9.00
2023-02-23T23:19:02.684Z,4.30
2023-02-23T23:21:30.140Z,5.83
2023-02-23T23:23:58.126Z,9.10
2023-02-23T23:26:25.680Z,8.03
2023-02-23T23:28:56.608Z,9.90
2023-02-23T23:31:28.150Z,9.33
2023-02-23T23:34:02.042Z,6.97
2023-02-23T23:36:32.100Z,8.73
2023-02-23T23:38:59.264Z,8.90
2023-02-23T23:41:26.613Z,5.57
2023-02-23T23:43:54.853Z,4.97
2023-02-23T23:46:22.923Z,4.33
2023-02-23T23:48:49.793Z,5.60
2023-02-23T23:51:16.273Z,9.53
2023-02-23T23:53:42.641Z,10.60
2023-02-23T23:56:10.807Z,5.90
2023-02-23T23:58:37.700Z,6.23
